Dellwood, Wisconsin
Current Conditions -  °F | °C
As of 10:58 AM on Sunday 23 Nov 2014 (Local Time) from KVOK Reporting Station
Haze Haze  
Wind Chill: 50°   Ceiling: 600
Heat Index: 50°   Visibility: 6mi
Dew Point: 50°   Wind: 8mph
Humidity: 100%   Direction: 170°S
Pressure: 29.53"   Gusts: NA
Location:  43.98°N, 89.94°W
Report Text: KVOK 231658Z 17007KT 6SM BR OVC006 10/10 A2953 RMK AO2A SLP006
Loading
Personal Weather Stations






























Interactive Weather Map New forecast layout! Learn more

10-Day Weather Forecast

Advertisements
Track Severe Weather on mobile